sensor_id;sensor_type;location;lat;lon;timestamp;temperature;humidity
2112;DHT22;1062;52.538;13.400;2024-01-25T00:00:27;8.50;99.90
2112;DHT22;1062;52.538;13.400;2024-01-25T00:02:53;8.50;99.90
2112;DHT22;1062;52.538;13.400;2024-01-25T00:05:18;8.50;99.90
2112;DHT22;1062;52.538;13.400;2024-01-25T00:07:45;8.50;99.90
2112;DHT22;1062;52.538;13.400;2024-01-25T00:10:11;8.50;99.90
2112;DHT22;1062;52.538;13.400;2024-01-25T00:12:37;8.50;99.90
2112;DHT22;1062;52.538;13.400;2024-01-25T00:15:03;8.50;99.90
2112;DHT22;1062;52.538;13.400;2024-01-25T00:17:28;8.50;99.90
2112;DHT22;1062;52.538;13.400;2024-01-25T00:19:54;8.40;99.90
2112;DHT22;1062;52.538;13.400;2024-01-25T00:22:20;8.40;99.90
2112;DHT22;1062;52.538;13.400;2024-01-25T00:24:45;8.40;99.90
2112;DHT22;1062;52.538;13.400;2024-01-25T00:27:11;8.40;99.90
2112;DHT22;1062;52.538;13.400;2024-01-25T00:29:36;8.40;99.90
2112;DHT22;1062;52.538;13.400;2024-01-25T00:32:03;8.30;99.90
2112;DHT22;1062;52.538;13.400;2024-01-25T00:34:28;8.30;99.90
2112;DHT22;1062;52.538;13.400;2024-01-25T00:36:54;8.30;99.90
2112;DHT22;1062;52.538;13.400;2024-01-25T00:39:20;8.30;99.90
2112;DHT22;1062;52.538;13.400;2024-01-25T00:41:47;8.40;99.90
2112;DHT22;1062;52.538;13.400;2024-01-25T00:44:15;8.40;99.90
2112;DHT22;1062;52.538;13.400;2024-01-25T00:46:41;8.30;99.90
2112;DHT22;1062;52.538;13.400;2024-01-25T00:49:07;8.40;99.90
2112;DHT22;1062;52.538;13.400;2024-01-25T00:51:33;8.40;99.90
2112;DHT22;1062;52.538;13.400;2024-01-25T00:53:59;8.40;99.90
2112;DHT22;1062;52.538;13.400;2024-01-25T00:56:25;8.40;99.90
2112;DHT22;1062;52.538;13.400;2024-01-25T00:58:50;8.40;99.90
2112;DHT22;1062;52.538;13.400;2024-01-25T01:01:18;8.30;99.90
2112;DHT22;1062;52.538;13.400;2024-01-25T01:03:45;8.40;99.90
2112;DHT22;1062;52.538;13.400;2024-01-25T01:06:20;8.30;99.90
2112;DHT22;1062;52.538;13.400;2024-01-25T01:08:46;8.30;99.90
2112;DHT22;1062;52.538;13.400;2024-01-25T01:11:12;8.30;99.90
2112;DHT22;1062;52.538;13.400;2024-01-25T01:13:38;8.30;99.90
2112;DHT22;1062;52.538;13.400;2024-01-25T01:16:03;8.30;99.90
2112;DHT22;1062;52.538;13.400;2024-01-25T01:18:29;8.30;99.90
2112;DHT22;1062;52.538;13.400;2024-01-25T01:20:55;8.30;99.90
2112;DHT22;1062;52.538;13.400;2024-01-25T01:23:20;8.30;99.90
2112;DHT22;1062;52.538;13.400;2024-01-25T01:25:46;8.30;99.90
2112;DHT22;1062;52.538;13.400;2024-01-25T01:28:12;8.30;99.90
2112;DHT22;1062;52.538;13.400;2024-01-25T01:30:37;8.30;99.90
2112;DHT22;1062;52.538;13.400;2024-01-25T01:33:09;8.30;99.90
2112;DHT22;1062;52.538;13.400;2024-01-25T01:35:35;8.30;99.90
2112;DHT22;1062;52.538;13.400;2024-01-25T01:38:01;8.30;99.90
2112;DHT22;1062;52.538;13.400;2024-01-25T01:40:27;8.30;99.90
2112;DHT22;1062;52.538;13.400;2024-01-25T01:42:59;8.30;99.90
2112;DHT22;1062;52.538;13.400;2024-01-25T01:45:25;8.30;99.90
2112;DHT22;1062;52.538;13.400;2024-01-25T01:47:50;8.30;99.90
2112;DHT22;1062;52.538;13.400;2024-01-25T01:50:16;8.30;99.90
2112;DHT22;1062;52.538;13.400;2024-01-25T01:52:42;8.30;99.90
2112;DHT22;1062;52.538;13.400;2024-01-25T01:55:08;8.20;99.90
2112;DHT22;1062;52.538;13.400;2024-01-25T01:57:35;8.30;99.90
2112;DHT22;1062;52.538;13.400;2024-01-25T02:00:03;8.30;99.90
2112;DHT22;1062;52.538;13.400;2024-01-25T02:02:30;8.20;99.90
2112;DHT22;1062;52.538;13.400;2024-01-25T02:04:55;8.20;99.90
2112;DHT22;1062;52.538;13.400;2024-01-25T02:07:21;8.20;99.90
2112;DHT22;1062;52.538;13.400;2024-01-25T02:09:47;8.20;99.90
2112;DHT22;1062;52.538;13.400;2024-01-25T02:12:15;8.20;99.90
2112;DHT22;1062;52.538;13.400;2024-01-25T02:14:42;8.20;99.90
2112;DHT22;1062;52.538;13.400;2024-01-25T02:17:08;8.20;99.90
2112;DHT22;1062;52.538;13.400;2024-01-25T02:19:34;8.20;99.90
2112;DHT22;1062;52.538;13.400;2024-01-25T02:21:59;8.20;99.90
2112;DHT22;1062;52.538;13.400;2024-01-25T02:24:25;8.10;99.90
2112;DHT22;1062;52.538;13.400;2024-01-25T02:26:50;8.10;99.90
2112;DHT22;1062;52.538;13.400;2024-01-25T02:29:16;8.10;99.90
2112;DHT22;1062;52.538;13.400;2024-01-25T02:31:42;8.10;99.90
2112;DHT22;1062;52.538;13.400;2024-01-25T02:34:07;8.10;99.90
2112;DHT22;1062;52.538;13.400;2024-01-25T02:36:33;8.10;99.90
2112;DHT22;1062;52.538;13.400;2024-01-25T02:38:58;8.10;99.90
2112;DHT22;1062;52.538;13.400;2024-01-25T02:41:24;8.00;99.90
2112;DHT22;1062;52.538;13.400;2024-01-25T02:43:49;8.00;99.90
2112;DHT22;1062;52.538;13.400;2024-01-25T02:46:15;8.00;99.90
2112;DHT22;1062;52.538;13.400;2024-01-25T02:48:40;8.00;99.90
2112;DHT22;1062;52.538;13.400;2024-01-25T02:51:06;8.00;99.90
2112;DHT22;1062;52.538;13.400;2024-01-25T02:53:32;8.00;99.90
2112;DHT22;1062;52.538;13.400;2024-01-25T02:55:57;8.00;99.90
2112;DHT22;1062;52.538;13.400;2024-01-25T02:58:23;8.00;99.90
2112;DHT22;1062;52.538;13.400;2024-01-25T03:00:48;8.00;99.90
2112;DHT22;1062;52.538;13.400;2024-01-25T03:03:14;8.00;99.90
2112;DHT22;1062;52.538;13.400;2024-01-25T03:05:39;8.00;99.90
2112;DHT22;1062;52.538;13.400;2024-01-25T03:08:05;7.90;99.90
2112;DHT22;1062;52.538;13.400;2024-01-25T03:10:31;8.00;99.90
2112;DHT22;1062;52.538;13.400;2024-01-25T03:12:56;8.00;99.90
2112;DHT22;1062;52.538;13.400;2024-01-25T03:15:22;8.00;99.90
2112;DHT22;1062;52.538;13.400;2024-01-25T03:17:47;8.00;99.90
2112;DHT22;1062;52.538;13.400;2024-01-25T03:20:13;7.90;99.90
2112;DHT22;1062;52.538;13.400;2024-01-25T03:22:39;7.90;99.90
2112;DHT22;1062;52.538;13.400;2024-01-25T03:25:05;8.00;99.90
2112;DHT22;1062;52.538;13.400;2024-01-25T03:27:30;7.90;99.90
2112;DHT22;1062;52.538;13.400;2024-01-25T03:29:56;8.00;99.90
2112;DHT22;1062;52.538;13.400;2024-01-25T03:32:22;8.00;99.90
2112;DHT22;1062;52.538;13.400;2024-01-25T03:34:47;7.90;99.90
2112;DHT22;1062;52.538;13.400;2024-01-25T03:37:13;7.90;99.90
2112;DHT22;1062;52.538;13.400;2024-01-25T03:39:38;7.90;99.90
2112;DHT22;1062;52.538;13.400;2024-01-25T03:42:04;7.90;99.90
2112;DHT22;1062;52.538;13.400;2024-01-25T03:44:29;7.90;99.90
2112;DHT22;1062;52.538;13.400;2024-01-25T03:46:55;7.90;99.90
2112;DHT22;1062;52.538;13.400;2024-01-25T03:49:21;7.90;99.90
2112;DHT22;1062;52.538;13.400;2024-01-25T03:51:48;7.90;99.90
2112;DHT22;1062;52.538;13.400;2024-01-25T03:54:14;7.90;99.90
2112;DHT22;1062;52.538;13.400;2024-01-25T03:56:40;7.90;99.90
2112;DHT22;1062;52.538;13.400;2024-01-25T03:59:05;7.90;99.90
2112;DHT22;1062;52.538;13.400;2024-01-25T04:01:44;7.90;99.90
2112;DHT22;1062;52.538;13.400;2024-01-25T04:04:10;7.90;99.90
2112;DHT22;1062;52.538;13.400;2024-01-25T04:06:38;7.90;99.90
2112;DHT22;1062;52.538;13.400;2024-01-25T04:09:04;7.80;99.90
2112;DHT22;1062;52.538;13.400;2024-01-25T04:11:30;7.80;99.90
2112;DHT22;1062;52.538;13.400;2024-01-25T04:13:55;7.80;99.90
2112;DHT22;1062;52.538;13.400;2024-01-25T04:16:21;7.80;99.90
2112;DHT22;1062;52.538;13.400;2024-01-25T04:18:47;7.80;99.90
2112;DHT22;1062;52.538;13.400;2024-01-25T04:21:12;7.80;99.90
2112;DHT22;1062;52.538;13.400;2024-01-25T04:23:38;7.80;99.90
2112;DHT22;1062;52.538;13.400;2024-01-25T04:26:03;7.80;99.90
2112;DHT22;1062;52.538;13.400;2024-01-25T04:28:29;7.80;99.90
2112;DHT22;1062;52.538;13.400;2024-01-25T04:30:54;7.80;99.90
2112;DHT22;1062;52.538;13.400;2024-01-25T04:33:20;7.80;99.90
2112;DHT22;1062;52.538;13.400;2024-01-25T04:35:46;7.80;99.90
2112;DHT22;1062;52.538;13.400;2024-01-25T04:38:11;7.80;99.90
2112;DHT22;1062;52.538;13.400;2024-01-25T04:40:37;7.80;99.90
2112;DHT22;1062;52.538;13.400;2024-01-25T04:43:02;7.80;99.90
2112;DHT22;1062;52.538;13.400;2024-01-25T04:45:28;7.80;99.90
2112;DHT22;1062;52.538;13.400;2024-01-25T04:47:54;7.70;99.90
2112;DHT22;1062;52.538;13.400;2024-01-25T04:50:20;7.80;99.90
2112;DHT22;1062;52.538;13.400;2024-01-25T04:52:45;7.70;99.90
2112;DHT22;1062;52.538;13.400;2024-01-25T04:55:11;7.70;99.90
2112;DHT22;1062;52.538;13.400;2024-01-25T04:57:36;7.80;99.90
2112;DHT22;1062;52.538;13.400;2024-01-25T05:00:02;7.70;99.90
2112;DHT22;1062;52.538;13.400;2024-01-25T05:02:28;7.70;99.90
2112;DHT22;1062;52.538;13.400;2024-01-25T05:04:54;7.80;99.90
2112;DHT22;1062;52.538;13.400;2024-01-25T05:07:19;7.80;99.90
2112;DHT22;1062;52.538;13.400;2024-01-25T05:09:45;7.80;99.90
2112;DHT22;1062;52.538;13.400;2024-01-25T05:12:10;7.80;99.90
2112;DHT22;1062;52.538;13.400;2024-01-25T05:14:36;7.70;99.90
2112;DHT22;1062;52.538;13.400;2024-01-25T05:17:01;7.70;99.90
2112;DHT22;1062;52.538;13.400;2024-01-25T05:19:27;7.70;99.90
2112;DHT22;1062;52.538;13.400;2024-01-25T05:21:53;7.70;99.90
2112;DHT22;1062;52.538;13.400;2024-01-25T05:24:18;7.70;99.90
2112;DHT22;1062;52.538;13.400;2024-01-25T05:26:44;7.70;99.90
2112;DHT22;1062;52.538;13.400;2024-01-25T05:29:10;7.70;99.90
2112;DHT22;1062;52.538;13.400;2024-01-25T05:31:36;7.70;99.90
2112;DHT22;1062;52.538;13.400;2024-01-25T05:34:01;7.70;99.90
2112;DHT22;1062;52.538;13.400;2024-01-25T05:36:27;7.70;99.90
2112;DHT22;1062;52.538;13.400;2024-01-25T05:38:53;7.70;99.90
2112;DHT22;1062;52.538;13.400;2024-01-25T05:41:18;7.70;99.90
2112;DHT22;1062;52.538;13.400;2024-01-25T05:43:44;7.70;99.90
2112;DHT22;1062;52.538;13.400;2024-01-25T05:46:10;7.70;99.90
2112;DHT22;1062;52.538;13.400;2024-01-25T05:48:35;7.70;99.90
2112;DHT22;1062;52.538;13.400;2024-01-25T05:51:01;7.70;99.90
2112;DHT22;1062;52.538;13.400;2024-01-25T05:53:27;7.70;99.90
2112;DHT22;1062;52.538;13.400;2024-01-25T05:55:52;7.70;99.90
2112;DHT22;1062;52.538;13.400;2024-01-25T05:58:18;7.70;99.90
2112;DHT22;1062;52.538;13.400;2024-01-25T06:00:43;7.70;99.90
2112;DHT22;1062;52.538;13.400;2024-01-25T06:03:09;7.70;99.90
2112;DHT22;1062;52.538;13.400;2024-01-25T06:05:35;7.70;99.90
2112;DHT22;1062;52.538;13.400;2024-01-25T06:08:00;7.70;99.90
2112;DHT22;1062;52.538;13.400;2024-01-25T06:10:26;7.70;99.90
2112;DHT22;1062;52.538;13.400;2024-01-25T06:12:51;7.70;99.90
2112;DHT22;1062;52.538;13.400;2024-01-25T06:15:17;7.70;99.90
2112;DHT22;1062;52.538;13.400;2024-01-25T06:17:42;7.70;99.90
2112;DHT22;1062;52.538;13.400;2024-01-25T06:20:08;7.80;99.90
2112;DHT22;1062;52.538;13.400;2024-01-25T06:22:35;7.80;99.90
2112;DHT22;1062;52.538;13.400;2024-01-25T06:25:01;7.70;99.90
2112;DHT22;1062;52.538;13.400;2024-01-25T06:27:29;7.70;99.90
2112;DHT22;1062;52.538;13.400;2024-01-25T06:29:55;7.80;99.90
2112;DHT22;1062;52.538;13.400;2024-01-25T06:32:20;7.70;99.90
2112;DHT22;1062;52.538;13.400;2024-01-25T06:34:46;7.70;99.90
2112;DHT22;1062;52.538;13.400;2024-01-25T06:37:11;7.70;99.90
2112;DHT22;1062;52.538;13.400;2024-01-25T06:39:40;7.70;99.90
2112;DHT22;1062;52.538;13.400;2024-01-25T06:42:06;7.70;99.90
2112;DHT22;1062;52.538;13.400;2024-01-25T06:44:32;7.70;99.90
2112;DHT22;1062;52.538;13.400;2024-01-25T06:46:58;7.70;99.90
2112;DHT22;1062;52.538;13.400;2024-01-25T06:49:23;7.70;99.90
2112;DHT22;1062;52.538;13.400;2024-01-25T06:51:49;7.70;99.90
2112;DHT22;1062;52.538;13.400;2024-01-25T06:54:15;7.70;99.90
2112;DHT22;1062;52.538;13.400;2024-01-25T06:56:41;7.70;99.90
2112;DHT22;1062;52.538;13.400;2024-01-25T06:59:07;7.70;99.90
2112;DHT22;1062;52.538;13.400;2024-01-25T07:01:32;7.70;99.90
2112;DHT22;1062;52.538;13.400;2024-01-25T07:03:58;7.80;99.90
2112;DHT22;1062;52.538;13.400;2024-01-25T07:06:24;7.70;99.90
2112;DHT22;1062;52.538;13.400;2024-01-25T07:08:49;7.70;99.90
2112;DHT22;1062;52.538;13.400;2024-01-25T07:11:15;7.80;99.90
2112;DHT22;1062;52.538;13.400;2024-01-25T07:13:42;7.80;99.90
2112;DHT22;1062;52.538;13.400;2024-01-25T07:16:08;7.80;99.90
2112;DHT22;1062;52.538;13.400;2024-01-25T07:18:33;7.80;99.90
2112;DHT22;1062;52.538;13.400;2024-01-25T07:20:59;7.80;99.90
2112;DHT22;1062;52.538;13.400;2024-01-25T07:23:25;7.80;99.90
2112;DHT22;1062;52.538;13.400;2024-01-25T07:25:52;7.70;99.90
2112;DHT22;1062;52.538;13.400;2024-01-25T07:28:21;7.80;99.90
2112;DHT22;1062;52.538;13.400;2024-01-25T07:30:49;7.80;99.90
2112;DHT22;1062;52.538;13.400;2024-01-25T07:33:15;7.70;99.90
2112;DHT22;1062;52.538;13.400;2024-01-25T07:35:41;7.80;99.90
2112;DHT22;1062;52.538;13.400;2024-01-25T07:38:14;7.80;99.90
2112;DHT22;1062;52.538;13.400;2024-01-25T07:40:40;7.80;99.90
2112;DHT22;1062;52.538;13.400;2024-01-25T07:43:05;7.80;99.90
2112;DHT22;1062;52.538;13.400;2024-01-25T07:45:32;7.80;99.90
2112;DHT22;1062;52.538;13.400;2024-01-25T07:47:57;7.80;99.90
2112;DHT22;1062;52.538;13.400;2024-01-25T07:50:23;7.80;99.90
2112;DHT22;1062;52.538;13.400;2024-01-25T07:52:49;7.80;99.90
2112;DHT22;1062;52.538;13.400;2024-01-25T07:55:16;7.80;99.90
2112;DHT22;1062;52.538;13.400;2024-01-25T07:57:41;7.80;99.90
2112;DHT22;1062;52.538;13.400;2024-01-25T08:00:07;7.80;99.90
2112;DHT22;1062;52.538;13.400;2024-01-25T08:02:35;7.80;99.90
2112;DHT22;1062;52.538;13.400;2024-01-25T08:05:01;7.80;99.90
2112;DHT22;1062;52.538;13.400;2024-01-25T08:07:28;7.80;99.90
2112;DHT22;1062;52.538;13.400;2024-01-25T08:09:53;7.80;99.90
2112;DHT22;1062;52.538;13.400;2024-01-25T08:12:22;7.70;99.90
2112;DHT22;1062;52.538;13.400;2024-01-25T08:14:48;7.80;99.90
2112;DHT22;1062;52.538;13.400;2024-01-25T08:17:13;7.80;99.90
2112;DHT22;1062;52.538;13.400;2024-01-25T08:19:39;7.80;99.90
2112;DHT22;1062;52.538;13.400;2024-01-25T08:22:05;7.80;99.90
2112;DHT22;1062;52.538;13.400;2024-01-25T08:24:31;7.80;99.90
2112;DHT22;1062;52.538;13.400;2024-01-25T08:26:56;7.80;99.90
2112;DHT22;1062;52.538;13.400;2024-01-25T08:29:22;7.80;99.90
2112;DHT22;1062;52.538;13.400;2024-01-25T08:31:47;7.80;99.90
2112;DHT22;1062;52.538;13.400;2024-01-25T08:34:13;7.80;99.90
2112;DHT22;1062;52.538;13.400;2024-01-25T08:36:39;7.90;99.90
2112;DHT22;1062;52.538;13.400;2024-01-25T08:39:04;7.90;99.90
2112;DHT22;1062;52.538;13.400;2024-01-25T08:41:30;7.80;99.90
2112;DHT22;1062;52.538;13.400;2024-01-25T08:43:56;7.80;99.90
2112;DHT22;1062;52.538;13.400;2024-01-25T08:46:22;7.90;99.90
2112;DHT22;1062;52.538;13.400;2024-01-25T08:48:47;7.90;99.90
2112;DHT22;1062;52.538;13.400;2024-01-25T08:51:13;7.90;99.90
2112;DHT22;1062;52.538;13.400;2024-01-25T08:53:38;7.90;99.90
2112;DHT22;1062;52.538;13.400;2024-01-25T08:56:04;8.00;99.90
2112;DHT22;1062;52.538;13.400;2024-01-25T08:58:30;7.90;99.90
2112;DHT22;1062;52.538;13.400;2024-01-25T09:00:56;8.00;99.90
2112;DHT22;1062;52.538;13.400;2024-01-25T09:03:22;8.00;99.90
2112;DHT22;1062;52.538;13.400;2024-01-25T09:05:48;8.00;99.90
2112;DHT22;1062;52.538;13.400;2024-01-25T09:08:14;8.00;99.90
2112;DHT22;1062;52.538;13.400;2024-01-25T09:10:41;8.00;99.90
2112;DHT22;1062;52.538;13.400;2024-01-25T09:13:07;8.00;99.90
2112;DHT22;1062;52.538;13.400;2024-01-25T09:15:33;8.00;99.90
2112;DHT22;1062;52.538;13.400;2024-01-25T09:17:58;8.00;99.90
2112;DHT22;1062;52.538;13.400;2024-01-25T09:20:24;8.00;99.90
2112;DHT22;1062;52.538;13.400;2024-01-25T09:22:50;8.00;99.90
2112;DHT22;1062;52.538;13.400;2024-01-25T09:25:16;8.10;99.90
2112;DHT22;1062;52.538;13.400;2024-01-25T09:27:42;8.00;99.90
2112;DHT22;1062;52.538;13.400;2024-01-25T09:30:08;7.90;99.90
2112;DHT22;1062;52.538;13.400;2024-01-25T09:32:34;7.90;99.90
2112;DHT22;1062;52.538;13.400;2024-01-25T09:34:59;7.90;99.90
2112;DHT22;1062;52.538;13.400;2024-01-25T09:37:25;8.00;99.90
2112;DHT22;1062;52.538;13.400;2024-01-25T09:39:51;7.90;99.90
2112;DHT22;1062;52.538;13.400;2024-01-25T09:42:17;7.90;99.90
2112;DHT22;1062;52.538;13.400;2024-01-25T09:44:43;8.00;99.90
2112;DHT22;1062;52.538;13.400;2024-01-25T09:47:10;7.80;99.90
2112;DHT22;1062;52.538;13.400;2024-01-25T09:49:35;7.90;99.90
2112;DHT22;1062;52.538;13.400;2024-01-25T09:52:04;7.90;99.90
2112;DHT22;1062;52.538;13.400;2024-01-25T09:54:38;7.90;99.90
2112;DHT22;1062;52.538;13.400;2024-01-25T09:57:07;7.90;99.90
2112;DHT22;1062;52.538;13.400;2024-01-25T09:59:34;7.90;99.90
2112;DHT22;1062;52.538;13.400;2024-01-25T10:02:01;7.90;99.90
2112;DHT22;1062;52.538;13.400;2024-01-25T10:04:27;7.90;99.90
2112;DHT22;1062;52.538;13.400;2024-01-25T10:06:55;7.90;99.90
2112;DHT22;1062;52.538;13.400;2024-01-25T10:09:22;7.80;99.90
2112;DHT22;1062;52.538;13.400;2024-01-25T10:11:48;7.90;99.90
2112;DHT22;1062;52.538;13.400;2024-01-25T10:14:13;7.90;99.90
2112;DHT22;1062;52.538;13.400;2024-01-25T10:16:39;8.00;99.90
2112;DHT22;1062;52.538;13.400;2024-01-25T10:19:06;7.90;99.90
2112;DHT22;1062;52.538;13.400;2024-01-25T10:21:36;8.00;99.90
2112;DHT22;1062;52.538;13.400;2024-01-25T10:24:01;8.00;99.90
2112;DHT22;1062;52.538;13.400;2024-01-25T10:26:28;8.00;99.90
2112;DHT22;1062;52.538;13.400;2024-01-25T10:28:54;8.00;99.90
2112;DHT22;1062;52.538;13.400;2024-01-25T10:31:23;8.00;99.90
2112;DHT22;1062;52.538;13.400;2024-01-25T10:33:52;8.10;99.90
2112;DHT22;1062;52.538;13.400;2024-01-25T10:36:18;8.10;99.90
2112;DHT22;1062;52.538;13.400;2024-01-25T10:38:48;8.10;99.90
2112;DHT22;1062;52.538;13.400;2024-01-25T10:41:14;8.00;99.90
2112;DHT22;1062;52.538;13.400;2024-01-25T10:43:42;8.10;99.90
2112;DHT22;1062;52.538;13.400;2024-01-25T10:46:08;8.10;99.90
2112;DHT22;1062;52.538;13.400;2024-01-25T10:48:34;8.20;99.90
2112;DHT22;1062;52.538;13.400;2024-01-25T10:51:00;8.10;99.90
2112;DHT22;1062;52.538;13.400;2024-01-25T10:53:30;8.20;99.90
2112;DHT22;1062;52.538;13.400;2024-01-25T10:55:56;8.30;99.90
2112;DHT22;1062;52.538;13.400;2024-01-25T10:58:22;8.30;99.90
2112;DHT22;1062;52.538;13.400;2024-01-25T11:00:52;8.40;99.90
2112;DHT22;1062;52.538;13.400;2024-01-25T11:03:18;8.40;99.90
2112;DHT22;1062;52.538;13.400;2024-01-25T11:05:46;8.40;99.90
2112;DHT22;1062;52.538;13.400;2024-01-25T11:08:19;8.40;99.90
2112;DHT22;1062;52.538;13.400;2024-01-25T11:10:50;8.30;99.90
2112;DHT22;1062;52.538;13.400;2024-01-25T11:13:16;8.40;99.90
2112;DHT22;1062;52.538;13.400;2024-01-25T11:15:41;8.40;99.90
2112;DHT22;1062;52.538;13.400;2024-01-25T11:18:08;8.40;99.90
2112;DHT22;1062;52.538;13.400;2024-01-25T11:20:35;8.40;99.90
2112;DHT22;1062;52.538;13.400;2024-01-25T11:23:03;8.50;99.90
2112;DHT22;1062;52.538;13.400;2024-01-25T11:25:34;8.50;99.90
2112;DHT22;1062;52.538;13.400;2024-01-25T11:28:01;8.50;99.90
2112;DHT22;1062;52.538;13.400;2024-01-25T11:30:29;8.40;99.90
2112;DHT22;1062;52.538;13.400;2024-01-25T11:32:55;8.50;99.90
2112;DHT22;1062;52.538;13.400;2024-01-25T11:35:21;8.60;99.90
2112;DHT22;1062;52.538;13.400;2024-01-25T11:37:48;8.50;99.90
2112;DHT22;1062;52.538;13.400;2024-01-25T11:40:15;8.60;99.90
2112;DHT22;1062;52.538;13.400;2024-01-25T11:42:43;8.50;99.90
2112;DHT22;1062;52.538;13.400;2024-01-25T11:45:10;8.50;99.90
2112;DHT22;1062;52.538;13.400;2024-01-25T11:47:37;8.70;99.90
2112;DHT22;1062;52.538;13.400;2024-01-25T11:50:05;8.60;99.90
2112;DHT22;1062;52.538;13.400;2024-01-25T11:52:32;8.50;99.90
2112;DHT22;1062;52.538;13.400;2024-01-25T11:55:06;8.50;99.90
2112;DHT22;1062;52.538;13.400;2024-01-25T11:57:35;8.60;99.90
2112;DHT22;1062;52.538;13.400;2024-01-25T12:00:03;8.60;99.90
2112;DHT22;1062;52.538;13.400;2024-01-25T12:02:30;8.70;99.90
2112;DHT22;1062;52.538;13.400;2024-01-25T12:04:56;8.70;99.90
2112;DHT22;1062;52.538;13.400;2024-01-25T12:07:22;8.60;99.90
2112;DHT22;1062;52.538;13.400;2024-01-25T12:10:05;8.80;99.90
2112;DHT22;1062;52.538;13.400;2024-01-25T12:12:31;8.70;99.90
2112;DHT22;1062;52.538;13.400;2024-01-25T12:15:04;8.90;99.90
2112;DHT22;1062;52.538;13.400;2024-01-25T12:17:30;8.80;99.90
2112;DHT22;1062;52.538;13.400;2024-01-25T12:19:59;8.80;99.90
2112;DHT22;1062;52.538;13.400;2024-01-25T12:22:29;8.90;99.90
2112;DHT22;1062;52.538;13.400;2024-01-25T12:24:58;8.90;99.90
2112;DHT22;1062;52.538;13.400;2024-01-25T12:27:25;9.00;99.90
2112;DHT22;1062;52.538;13.400;2024-01-25T12:29:52;8.80;99.90
2112;DHT22;1062;52.538;13.400;2024-01-25T12:32:21;8.80;99.90
2112;DHT22;1062;52.538;13.400;2024-01-25T12:34:59;8.90;99.90
2112;DHT22;1062;52.538;13.400;2024-01-25T12:37:29;8.90;99.90
2112;DHT22;1062;52.538;13.400;2024-01-25T12:39:55;8.90;99.90
2112;DHT22;1062;52.538;13.400;2024-01-25T12:42:21;8.80;99.90
2112;DHT22;1062;52.538;13.400;2024-01-25T12:44:47;8.70;99.90
2112;DHT22;1062;52.538;13.400;2024-01-25T12:47:13;8.70;99.90
2112;DHT22;1062;52.538;13.400;2024-01-25T12:49:43;8.80;99.90
2112;DHT22;1062;52.538;13.400;2024-01-25T12:52:13;8.70;99.90
2112;DHT22;1062;52.538;13.400;2024-01-25T12:54:39;8.70;99.90
2112;DHT22;1062;52.538;13.400;2024-01-25T12:57:05;8.80;99.90
2112;DHT22;1062;52.538;13.400;2024-01-25T12:59:34;8.90;99.90
2112;DHT22;1062;52.538;13.400;2024-01-25T13:02:00;8.90;99.90
2112;DHT22;1062;52.538;13.400;2024-01-25T13:04:26;8.90;99.90
2112;DHT22;1062;52.538;13.400;2024-01-25T13:06:53;8.80;99.90
2112;DHT22;1062;52.538;13.400;2024-01-25T13:09:20;8.80;99.90
2112;DHT22;1062;52.538;13.400;2024-01-25T13:11:46;8.70;99.90
2112;DHT22;1062;52.538;13.400;2024-01-25T13:14:12;8.60;99.90
2112;DHT22;1062;52.538;13.400;2024-01-25T13:16:38;8.70;99.90
2112;DHT22;1062;52.538;13.400;2024-01-25T13:19:03;8.60;99.90
2112;DHT22;1062;52.538;13.400;2024-01-25T13:21:29;8.60;99.90
2112;DHT22;1062;52.538;13.400;2024-01-25T13:23:54;8.60;99.90
2112;DHT22;1062;52.538;13.400;2024-01-25T13:26:20;8.70;99.90
2112;DHT22;1062;52.538;13.400;2024-01-25T13:28:45;8.70;99.90
2112;DHT22;1062;52.538;13.400;2024-01-25T13:31:11;8.70;99.90
2112;DHT22;1062;52.538;13.400;2024-01-25T13:33:37;8.70;99.90
2112;DHT22;1062;52.538;13.400;2024-01-25T13:36:03;8.80;99.90
2112;DHT22;1062;52.538;13.400;2024-01-25T13:38:34;8.70;99.90
2112;DHT22;1062;52.538;13.400;2024-01-25T13:40:59;8.50;99.90
2112;DHT22;1062;52.538;13.400;2024-01-25T13:43:25;8.50;99.90
2112;DHT22;1062;52.538;13.400;2024-01-25T13:45:51;8.50;99.90
2112;DHT22;1062;52.538;13.400;2024-01-25T13:48:16;8.40;99.90
2112;DHT22;1062;52.538;13.400;2024-01-25T13:50:44;8.40;99.90
2112;DHT22;1062;52.538;13.400;2024-01-25T13:53:10;8.40;99.90
2112;DHT22;1062;52.538;13.400;2024-01-25T13:55:36;8.50;99.90
2112;DHT22;1062;52.538;13.400;2024-01-25T13:58:01;8.50;99.90
2112;DHT22;1062;52.538;13.400;2024-01-25T14:00:27;8.50;99.90
2112;DHT22;1062;52.538;13.400;2024-01-25T14:02:53;8.40;99.90
2112;DHT22;1062;52.538;13.400;2024-01-25T14:05:19;8.40;99.90
2112;DHT22;1062;52.538;13.400;2024-01-25T14:07:44;8.30;99.90
2112;DHT22;1062;52.538;13.400;2024-01-25T14:10:10;8.30;99.90
2112;DHT22;1062;52.538;13.400;2024-01-25T14:12:36;8.30;99.90
2112;DHT22;1062;52.538;13.400;2024-01-25T14:15:01;8.30;99.90
2112;DHT22;1062;52.538;13.400;2024-01-25T14:17:27;8.20;99.90
2112;DHT22;1062;52.538;13.400;2024-01-25T14:19:53;8.30;99.90
2112;DHT22;1062;52.538;13.400;2024-01-25T14:22:19;8.30;99.90
2112;DHT22;1062;52.538;13.400;2024-01-25T14:24:46;8.20;99.90
2112;DHT22;1062;52.538;13.400;2024-01-25T14:27:12;8.20;99.90
2112;DHT22;1062;52.538;13.400;2024-01-25T14:29:37;8.10;99.90
2112;DHT22;1062;52.538;13.400;2024-01-25T14:32:03;8.10;99.90
2112;DHT22;1062;52.538;13.400;2024-01-25T14:34:29;8.10;99.90
2112;DHT22;1062;52.538;13.400;2024-01-25T14:36:54;8.10;99.90
2112;DHT22;1062;52.538;13.400;2024-01-25T14:39:20;8.10;99.90
2112;DHT22;1062;52.538;13.400;2024-01-25T14:41:46;8.10;99.90
2112;DHT22;1062;52.538;13.400;2024-01-25T14:44:12;8.00;99.90
2112;DHT22;1062;52.538;13.400;2024-01-25T14:46:37;8.00;99.90
2112;DHT22;1062;52.538;13.400;2024-01-25T14:49:03;8.00;99.90
2112;DHT22;1062;52.538;13.400;2024-01-25T14:51:29;8.00;99.90
2112;DHT22;1062;52.538;13.400;2024-01-25T14:53:55;8.00;99.90
2112;DHT22;1062;52.538;13.400;2024-01-25T14:56:20;8.00;99.90
2112;DHT22;1062;52.538;13.400;2024-01-25T14:58:46;7.90;99.90
2112;DHT22;1062;52.538;13.400;2024-01-25T15:01:13;7.90;99.90
2112;DHT22;1062;52.538;13.400;2024-01-25T15:03:40;7.90;99.90
2112;DHT22;1062;52.538;13.400;2024-01-25T15:06:05;7.80;99.90
2112;DHT22;1062;52.538;13.400;2024-01-25T15:08:31;7.80;99.90
2112;DHT22;1062;52.538;13.400;2024-01-25T15:10:56;7.70;99.90
2112;DHT22;1062;52.538;13.400;2024-01-25T15:13:22;7.70;99.90
2112;DHT22;1062;52.538;13.400;2024-01-25T15:15:47;7.70;99.90
2112;DHT22;1062;52.538;13.400;2024-01-25T15:18:13;7.70;99.90
2112;DHT22;1062;52.538;13.400;2024-01-25T15:20:39;7.70;99.90
2112;DHT22;1062;52.538;13.400;2024-01-25T15:23:04;7.70;99.90
2112;DHT22;1062;52.538;13.400;2024-01-25T15:25:30;7.70;99.90
2112;DHT22;1062;52.538;13.400;2024-01-25T15:27:56;7.70;99.90
2112;DHT22;1062;52.538;13.400;2024-01-25T15:30:21;7.70;99.90
2112;DHT22;1062;52.538;13.400;2024-01-25T15:32:47;7.70;99.90
2112;DHT22;1062;52.538;13.400;2024-01-25T15:35:13;7.70;99.90
2112;DHT22;1062;52.538;13.400;2024-01-25T15:37:39;7.70;99.90
2112;DHT22;1062;52.538;13.400;2024-01-25T15:40:07;7.70;99.90
2112;DHT22;1062;52.538;13.400;2024-01-25T15:42:45;7.70;99.90
2112;DHT22;1062;52.538;13.400;2024-01-25T15:45:10;7.70;99.90
2112;DHT22;1062;52.538;13.400;2024-01-25T15:47:36;7.70;99.90
2112;DHT22;1062;52.538;13.400;2024-01-25T15:50:03;7.70;99.90
2112;DHT22;1062;52.538;13.400;2024-01-25T15:52:32;7.70;99.90
2112;DHT22;1062;52.538;13.400;2024-01-25T15:54:58;7.70;99.90